createdAt,value
2022-09-11T00:01:33.545Z,13.27
2022-09-11T00:04:03.416Z,13.20
2022-09-11T00:06:32.195Z,13.21
2022-09-11T00:09:02.368Z,13.26
2022-09-11T00:11:33.051Z,13.29
2022-09-11T00:14:02.787Z,13.28
2022-09-11T00:16:33.996Z,13.34
2022-09-11T00:19:03.898Z,13.34
2022-09-11T00:21:32.599Z,13.04
2022-09-11T00:24:01.192Z,13.27
2022-09-11T00:26:29.455Z,13.04
2022-09-11T00:28:57.549Z,13.22
2022-09-11T00:31:30.305Z,13.12
2022-09-11T00:33:58.621Z,13.07
2022-09-11T00:36:29.067Z,13.12
2022-09-11T00:38:58.109Z,13.06
2022-09-11T00:41:27.822Z,12.96
2022-09-11T00:44:02.360Z,12.96
2022-09-11T00:46:41.662Z,12.75
2022-09-11T00:49:22.693Z,12.75
2022-09-11T00:51:54.632Z,12.96
2022-09-11T00:54:26.558Z,12.92
2022-09-11T00:56:55.468Z,12.95
2022-09-11T00:59:25.474Z,12.92
2022-09-11T01:01:56.206Z,12.93
2022-09-11T01:04:25.079Z,12.96
2022-09-11T01:06:54.337Z,12.99
2022-09-11T01:09:22.749Z,12.97
2022-09-11T01:11:55.809Z,13.00
2022-09-11T01:14:34.444Z,12.96
2022-09-11T01:17:12.714Z,12.94
2022-09-11T01:20:00.259Z,12.70
2022-09-11T01:22:46.920Z,12.89
2022-09-11T01:25:27.524Z,12.90
2022-09-11T01:27:57.803Z,12.86
2022-09-11T01:30:30.257Z,12.87
2022-09-11T01:33:06.703Z,12.91
2022-09-11T01:35:43.070Z,12.94
2022-09-11T01:38:16.171Z,12.81
2022-09-11T01:40:49.542Z,12.79
2022-09-11T01:43:22.307Z,12.94
2022-09-11T01:45:51.657Z,12.93
2022-09-11T01:48:23.363Z,12.91
2022-09-11T01:50:53.345Z,12.93
2022-09-11T01:53:24.461Z,12.96
2022-09-11T01:55:57.318Z,12.93
2022-09-11T01:58:29.602Z,12.95
2022-09-11T02:01:01.310Z,13.12
2022-09-11T02:03:33.202Z,13.13
2022-09-11T02:06:04.454Z,13.17
2022-09-11T02:08:39.616Z,13.01
2022-09-11T02:11:10.608Z,13.21
2022-09-11T02:13:48.344Z,13.29
2022-09-11T02:16:22.852Z,13.29
2022-09-11T02:18:59.735Z,13.30
2022-09-11T02:21:28.022Z,13.34
2022-09-11T02:23:56.636Z,13.28
2022-09-11T02:26:26.129Z,13.31
2022-09-11T02:28:56.017Z,13.31
2022-09-11T02:31:24.459Z,13.35
2022-09-11T02:33:52.756Z,13.15
2022-09-11T02:36:36.272Z,13.33
2022-09-11T02:39:17.784Z,13.35
2022-09-11T02:41:56.844Z,13.37
2022-09-11T02:44:31.868Z,13.37
2022-09-11T02:47:11.933Z,13.36
2022-09-11T02:49:47.956Z,13.38
2022-09-11T02:52:23.191Z,13.45
2022-09-11T02:54:56.967Z,13.42
2022-09-11T02:57:30.143Z,13.40
2022-09-11T03:00:01.478Z,13.49
2022-09-11T03:02:30.830Z,13.40
2022-09-11T03:04:59.195Z,13.36
2022-09-11T03:07:27.415Z,13.29
2022-09-11T03:09:55.529Z,13.16
2022-09-11T03:12:23.649Z,13.15
2022-09-11T03:14:52.025Z,13.38
2022-09-11T03:17:21.950Z,13.34
2022-09-11T03:19:50.121Z,13.35
2022-09-11T03:22:18.241Z,13.18
2022-09-11T03:24:46.414Z,13.20
2022-09-11T03:27:14.511Z,13.44
2022-09-11T03:29:42.871Z,13.38
2022-09-11T03:32:11.062Z,13.37
2022-09-11T03:34:40.455Z,13.28
2022-09-11T03:37:08.562Z,13.40
2022-09-11T03:39:36.683Z,13.38
2022-09-11T03:42:05.033Z,13.36
2022-09-11T03:44:33.146Z,13.44
2022-09-11T03:47:01.257Z,13.41
2022-09-11T03:49:29.434Z,13.40
2022-09-11T03:51:59.003Z,13.38
2022-09-11T03:54:27.761Z,13.38
2022-09-11T03:56:55.997Z,13.37
2022-09-11T03:59:24.119Z,13.23
2022-09-11T04:01:52.919Z,13.21
2022-09-11T04:04:21.295Z,13.39
2022-09-11T04:06:49.432Z,13.35
2022-09-11T04:09:19.054Z,13.17
2022-09-11T04:11:47.157Z,13.29
2022-09-11T04:14:16.076Z,13.34
2022-09-11T04:16:44.257Z,13.33
2022-09-11T04:19:13.441Z,13.17
2022-09-11T04:21:42.401Z,13.29
2022-09-11T04:24:11.336Z,13.25
2022-09-11T04:26:40.917Z,13.29
2022-09-11T04:29:09.034Z,13.31
2022-09-11T04:31:38.461Z,13.36
2022-09-11T04:34:06.987Z,13.37
2022-09-11T04:36:35.109Z,13.16
2022-09-11T04:39:03.291Z,13.35
2022-09-11T04:41:31.495Z,13.26
2022-09-11T04:44:05.227Z,13.35
2022-09-11T04:46:34.454Z,13.41
2022-09-11T04:49:03.046Z,13.19
2022-09-11T04:51:32.376Z,13.35
2022-09-11T04:54:01.296Z,13.35
2022-09-11T04:56:32.518Z,13.36
2022-09-11T04:59:03.486Z,13.25
2022-09-11T05:01:33.673Z,13.35
2022-09-11T05:04:01.908Z,13.41
2022-09-11T05:06:31.706Z,13.32
2022-09-11T05:09:03.642Z,13.40
2022-09-11T05:11:32.504Z,13.22
2022-09-11T05:14:02.245Z,13.37
2022-09-11T05:16:31.719Z,13.33
2022-09-11T05:19:00.196Z,13.39
2022-09-11T05:21:29.373Z,13.38
2022-09-11T05:23:58.849Z,13.39
2022-09-11T05:26:28.930Z,13.42
2022-09-11T05:29:04.054Z,13.49
2022-09-11T05:31:35.012Z,13.56
2022-09-11T05:34:10.951Z,13.58
2022-09-11T05:36:59.031Z,13.59
2022-09-11T05:39:43.943Z,13.55
2022-09-11T05:42:40.244Z,13.33
2022-09-11T05:45:22.488Z,13.47
2022-09-11T05:47:55.821Z,13.48
2022-09-11T05:50:24.544Z,13.48
2022-09-11T05:52:53.901Z,13.30
2022-09-11T05:55:22.780Z,13.55
2022-09-11T05:57:54.989Z,13.62
2022-09-11T06:00:23.512Z,13.69
2022-09-11T06:02:56.439Z,13.80
2022-09-11T06:05:26.633Z,13.78
2022-09-11T06:07:55.801Z,13.72
2022-09-11T06:10:24.101Z,13.85
2022-09-11T06:12:52.399Z,13.87
2022-09-11T06:15:45.202Z,13.91
2022-09-11T06:18:10.222Z,13.86
2022-09-11T06:20:38.471Z,13.84
2022-09-11T06:23:09.263Z,13.74
2022-09-11T06:25:37.957Z,13.91
2022-09-11T06:28:06.165Z,13.95
2022-09-11T06:30:40.881Z,13.65
2022-09-11T06:33:11.604Z,13.94
2022-09-11T06:35:39.974Z,14.33
2022-09-11T06:38:08.696Z,14.46
2022-09-11T06:40:38.364Z,14.45
2022-09-11T06:43:06.497Z,14.42
2022-09-11T06:45:34.857Z,14.59
2022-09-11T06:48:04.443Z,14.56
2022-09-11T06:50:40.988Z,14.65
2022-09-11T06:53:09.508Z,14.67
2022-09-11T06:55:37.863Z,14.70
2022-09-11T06:58:06.725Z,14.76
2022-09-11T07:00:35.092Z,14.79
2022-09-11T07:03:03.358Z,14.86
2022-09-11T07:05:33.928Z,14.81
2022-09-11T07:08:03.985Z,14.86
2022-09-11T07:10:34.953Z,14.83
2022-09-11T07:13:03.674Z,14.76
2022-09-11T07:15:32.174Z,14.78
2022-09-11T07:18:01.992Z,14.76
2022-09-11T07:20:31.549Z,14.74
2022-09-11T07:23:01.670Z,14.77
2022-09-11T07:25:29.977Z,14.74
2022-09-11T07:27:58.388Z,14.80
2022-09-11T07:30:27.251Z,14.57
2022-09-11T07:32:55.830Z,14.79
2022-09-11T07:35:24.047Z,14.76
2022-09-11T07:37:53.883Z,14.83
2022-09-11T07:40:23.819Z,14.91
2022-09-11T07:42:52.597Z,15.05
2022-09-11T07:45:22.822Z,15.10
2022-09-11T07:47:51.463Z,15.11
2022-09-11T07:50:20.095Z,15.16
2022-09-11T07:52:50.814Z,15.26
2022-09-11T07:55:19.465Z,15.39
2022-09-11T07:57:54.969Z,15.40
2022-09-11T08:00:26.322Z,15.70
2022-09-11T08:02:57.093Z,15.89
2022-09-11T08:05:26.782Z,16.00
2022-09-11T08:07:55.464Z,16.12
2022-09-11T08:10:27.559Z,16.14
2022-09-11T08:13:00.079Z,16.08
2022-09-11T08:15:28.968Z,16.03
2022-09-11T08:17:57.231Z,16.10
2022-09-11T08:20:25.406Z,16.04
2022-09-11T08:22:53.634Z,16.35
2022-09-11T08:25:21.917Z,16.36
2022-09-11T08:27:50.048Z,16.77
2022-09-11T08:30:19.770Z,16.71
2022-09-11T08:32:48.412Z,16.92
2022-09-11T08:35:17.175Z,17.08
2022-09-11T08:37:46.196Z,17.26
2022-09-11T08:40:15.404Z,17.37
2022-09-11T08:42:52.767Z,17.44
2022-09-11T08:45:37.259Z,17.33
2022-09-11T08:48:07.247Z,17.04
2022-09-11T08:50:40.333Z,17.18
2022-09-11T08:53:15.538Z,17.12
2022-09-11T08:55:47.651Z,17.03
2022-09-11T08:58:22.408Z,17.11
2022-09-11T09:00:57.812Z,17.14
2022-09-11T09:03:45.954Z,17.24
2022-09-11T09:06:46.328Z,17.52
2022-09-11T09:09:22.575Z,17.44
2022-09-11T09:11:59.205Z,17.18
2022-09-11T09:14:56.030Z,16.94
2022-09-11T09:17:32.131Z,16.68
2022-09-11T09:20:07.542Z,16.53
2022-09-11T09:22:42.064Z,16.51
2022-09-11T09:25:15.087Z,16.56
2022-09-11T09:27:49.689Z,16.59
2022-09-11T09:30:22.551Z,16.56
2022-09-11T09:35:56.730Z,16.68
2022-09-11T09:38:30.442Z,16.77
2022-09-11T09:41:13.563Z,16.88
2022-09-11T09:43:51.779Z,16.83
2022-09-11T09:46:27.989Z,16.76
2022-09-11T09:49:04.436Z,16.58
2022-09-11T09:51:36.976Z,16.67
2022-09-11T09:54:06.933Z,16.89
2022-09-11T09:56:37.846Z,17.18
2022-09-11T09:59:19.368Z,18.05
2022-09-11T10:01:50.115Z,18.83
2022-09-11T10:04:23.648Z,19.27
2022-09-11T10:06:54.507Z,19.16
2022-09-11T10:09:25.634Z,18.96
2022-09-11T10:11:56.484Z,19.13
2022-09-11T10:14:49.685Z,18.88
2022-09-11T10:17:21.761Z,19.29
2022-09-11T10:19:52.934Z,20.58
2022-09-11T10:22:31.726Z,21.03
2022-09-11T10:25:11.846Z,20.36
2022-09-11T10:27:52.116Z,20.11
2022-09-11T10:30:31.876Z,19.59
2022-09-11T10:33:03.476Z,19.91
2022-09-11T10:35:35.942Z,20.50
2022-09-11T10:38:17.977Z,21.18
2022-09-11T10:40:58.321Z,21.37
2022-09-11T10:43:29.841Z,20.59
2022-09-11T10:46:06.290Z,20.35
2022-09-11T10:48:34.527Z,19.74
2022-09-11T10:51:12.541Z,19.26
2022-09-11T10:53:49.661Z,18.61
2022-09-11T10:56:18.279Z,18.22
2022-09-11T10:58:52.258Z,17.90
2022-09-11T11:01:26.193Z,17.61
2022-09-11T11:03:55.654Z,17.24
2022-09-11T11:06:40.633Z,17.54
2022-09-11T11:09:31.891Z,17.57
2022-09-11T11:12:17.299Z,17.49
2022-09-11T11:19:15.335Z,16.99
2022-09-11T11:21:55.035Z,16.89
2022-09-11T11:24:35.362Z,16.93
2022-09-11T11:27:19.302Z,16.76
2022-09-11T11:30:00.679Z,16.66
2022-09-11T11:32:44.949Z,16.49
2022-09-11T11:35:32.140Z,16.51
2022-09-11T11:38:05.733Z,16.58
2022-09-11T11:40:38.333Z,16.69
2022-09-11T11:43:08.896Z,16.74
2022-09-11T11:45:40.647Z,17.22
2022-09-11T11:48:14.927Z,17.67
2022-09-11T11:50:44.817Z,18.15
2022-09-11T11:53:19.948Z,18.36
2022-09-11T11:55:55.978Z,18.36
2022-09-11T11:58:34.666Z,18.67
2022-09-11T12:01:08.229Z,18.90
2022-09-11T12:03:41.394Z,18.28
2022-09-11T12:06:11.654Z,18.33
2022-09-11T12:08:46.197Z,17.77
2022-09-11T12:11:16.577Z,17.22
2022-09-11T12:13:47.446Z,16.90
2022-09-11T12:16:20.527Z,16.80
2022-09-11T12:19:08.623Z,16.82
2022-09-11T12:21:43.689Z,16.88
2022-09-11T12:24:21.444Z,16.92
2022-09-11T12:27:28.863Z,17.01
2022-09-11T12:29:58.705Z,17.34
2022-09-11T12:32:51.422Z,17.37
2022-09-11T12:35:34.969Z,17.36
2022-09-11T12:38:13.234Z,17.64
2022-09-11T12:40:58.964Z,17.42
2022-09-11T12:44:03.249Z,18.36
2022-09-11T12:47:36.295Z,19.01
2022-09-11T12:50:34.036Z,19.28
2022-09-11T12:53:05.219Z,19.69
2022-09-11T12:55:39.732Z,19.08
2022-09-11T12:58:25.193Z,19.21
2022-09-11T13:01:07.622Z,19.08
2022-09-11T13:03:50.376Z,19.51
2022-09-11T13:06:25.076Z,19.78
2022-09-11T13:08:55.861Z,19.91
2022-09-11T13:11:39.049Z,20.52
2022-09-11T13:14:49.187Z,20.77
2022-09-11T13:17:26.346Z,20.34
2022-09-11T13:19:58.536Z,20.21
2022-09-11T13:22:27.867Z,19.46
2022-09-11T13:25:08.246Z,20.15
2022-09-11T13:27:39.964Z,20.58
2022-09-11T13:30:12.139Z,20.65
2022-09-11T13:32:42.897Z,20.42
2022-09-11T13:35:16.902Z,20.21
2022-09-11T13:37:49.974Z,20.36
2022-09-11T13:40:28.662Z,20.68
2022-09-11T13:42:57.645Z,20.55
2022-09-11T13:45:28.604Z,20.25
2022-09-11T13:47:58.574Z,20.01
2022-09-11T13:50:27.656Z,20.09
2022-09-11T13:52:57.542Z,19.94
2022-09-11T13:55:32.649Z,20.32
2022-09-11T13:58:02.074Z,20.71
2022-09-11T14:00:45.964Z,21.10
2022-09-11T14:03:20.519Z,21.06
2022-09-11T14:05:55.419Z,20.68
2022-09-11T14:08:29.972Z,20.11
2022-09-11T14:11:10.928Z,19.69
2022-09-11T14:13:47.712Z,19.56
2022-09-11T14:16:26.664Z,19.53
2022-09-11T14:18:57.454Z,19.51
2022-09-11T14:21:37.174Z,19.48
2022-09-11T14:24:26.488Z,19.91
2022-09-11T14:26:58.283Z,20.18
2022-09-11T14:29:28.170Z,20.08
2022-09-11T14:32:28.068Z,20.57
2022-09-11T14:35:00.701Z,20.69
2022-09-11T14:37:32.788Z,20.42
2022-09-11T14:40:07.999Z,20.10
2022-09-11T14:42:38.510Z,19.64
2022-09-11T14:45:10.938Z,19.20
2022-09-11T14:47:40.632Z,18.85
2022-09-11T14:50:13.429Z,18.77
2022-09-11T14:52:42.290Z,18.66
2022-09-11T14:55:15.880Z,18.56
2022-09-11T14:57:46.640Z,18.40
2022-09-11T15:00:20.331Z,18.36
2022-09-11T15:02:50.354Z,18.10
2022-09-11T15:05:23.108Z,18.04
2022-09-11T15:07:55.636Z,17.77
2022-09-11T15:10:24.262Z,17.74
2022-09-11T15:12:53.197Z,17.76
2022-09-11T15:15:21.547Z,17.71
2022-09-11T15:17:51.003Z,17.66
2022-09-11T15:20:21.160Z,17.64
2022-09-11T15:22:53.347Z,17.50
2022-09-11T15:25:40.858Z,17.36
2022-09-11T15:28:12.366Z,17.49
2022-09-11T15:30:47.622Z,17.38
2022-09-11T15:33:18.654Z,17.41
2022-09-11T15:35:54.236Z,17.32
2022-09-11T15:38:24.405Z,17.28
2022-09-11T15:40:56.903Z,17.14
2022-09-11T15:43:36.939Z,17.22
2022-09-11T15:46:11.615Z,17.27
2022-09-11T15:48:42.478Z,17.08
2022-09-11T15:51:15.526Z,17.33
2022-09-11T15:53:45.646Z,17.61
2022-09-11T15:56:16.595Z,17.84
2022-09-11T15:58:47.101Z,18.36
2022-09-11T16:01:21.037Z,19.01
2022-09-11T16:03:54.079Z,19.34
2022-09-11T16:06:25.403Z,20.45
2022-09-11T16:08:58.919Z,20.61
2022-09-11T16:11:29.547Z,19.54
2022-09-11T16:13:59.019Z,18.72
2022-09-11T16:16:28.862Z,18.14
2022-09-11T16:19:02.007Z,18.26
